Time;durP1;ratioP1;P1;durP2;ratioP2;P2;SDS_P1;SDS_P2;PMS_P1;PMS_P2;Temp;Humidity;BMP_temperature;BMP_pressure;BME280_temperature;BME280_humidity;BME280_pressure;Samples;Min_cycle;Max_cycle;Signal;HPM_P1;HPM_P2
2023/08/09 00:00:48;;;;;;;6.80;2.13;;;12.90;99.90;;;;;;5006467;28;20042;-62
2023/08/09 00:03:14;;;;;;;6.22;2.35;;;12.30;99.90;;;;;;4990622;28;20443;-63
2023/08/09 00:05:42;;;;;;;10.18;2.47;;;12.30;99.90;;;;;;4989974;28;20050;-63
2023/08/09 00:08:07;;;;;;;6.43;2.15;;;12.70;99.90;;;;;;4991134;28;20524;-63
2023/08/09 00:10:33;;;;;;;6.18;1.92;;;12.40;99.90;;;;;;4990014;28;20095;-63
2023/08/09 00:12:59;;;;;;;6.78;1.90;;;12.60;99.90;;;;;;4991012;28;20045;-63
2023/08/09 00:15:25;;;;;;;5.32;2.03;;;11.90;99.90;;;;;;4990210;28;20034;-63
2023/08/09 00:17:51;;;;;;;7.53;2.30;;;12.40;99.90;;;;;;4990488;28;20105;-63
2023/08/09 00:20:16;;;;;;;9.65;2.08;;;11.70;99.90;;;;;;4990636;28;20031;-63
2023/08/09 00:22:42;;;;;;;7.75;2.28;;;12.20;99.90;;;;;;4990377;28;20046;-63
2023/08/09 00:25:10;;;;;;;7.07;2.60;;;12.00;99.90;;;;;;4991371;28;20038;-63
2023/08/09 00:27:36;;;;;;;5.68;2.33;;;11.60;99.90;;;;;;4989892;28;20062;-63
2023/08/09 00:30:08;;;;;;;6.65;2.47;;;11.60;99.90;;;;;;4991430;28;20467;-63
2023/08/09 00:32:35;;;;;;;7.10;2.30;;;;;;;;;;4991180;28;20282;-63
2023/08/09 00:35:00;;;;;;;8.48;2.20;;;12.40;99.90;;;;;;5003960;28;20030;-63
2023/08/09 00:37:26;;;;;;;7.97;2.45;;;11.50;99.90;;;;;;4987970;28;20034;-63
2023/08/09 00:39:52;;;;;;;5.50;1.80;;;12.50;99.90;;;;;;4991329;28;20042;-62
2023/08/09 00:42:18;;;;;;;8.45;2.65;;;12.00;99.90;;;;;;4989971;28;20065;-62
2023/08/09 00:44:43;;;;;;;7.03;2.15;;;11.80;99.90;;;;;;4987857;28;20053;-64
2023/08/09 00:47:10;;;;;;;6.03;1.58;;;12.40;99.90;;;;;;5004745;28;20484;-65
2023/08/09 00:49:37;;;;;;;10.18;1.75;;;12.40;99.90;;;;;;5004471;28;20042;-63
2023/08/09 00:52:03;;;;;;;7.80;2.22;;;11.40;99.90;;;;;;4989776;28;20038;-63
2023/08/09 00:54:29;;;;;;;5.68;1.55;;;11.90;99.90;;;;;;4987125;28;20117;-62
2023/08/09 00:56:56;;;;;;;7.55;1.75;;;11.90;99.90;;;;;;4969986;28;20489;-65
2023/08/09 00:59:21;;;;;;;4.30;1.42;;;12.30;99.90;;;;;;4987771;28;20578;-64
2023/08/09 01:01:48;;;;;;;4.95;1.60;;;;;;;;;;4988189;28;20283;-64
2023/08/09 01:04:14;;;;;;;5.28;1.52;;;12.10;99.90;;;;;;4987451;28;20045;-63
2023/08/09 01:06:43;;;;;;;4.97;1.38;;;11.90;99.90;;;;;;5002287;28;20054;-64
2023/08/09 01:09:47;;;;;;;6.05;1.80;;;11.80;99.90;;;;;;4989380;28;20047;-64
2023/08/09 01:12:19;;;;;;;5.65;1.35;;;12.20;99.90;;;;;;4985377;28;20051;-63
2023/08/09 01:14:52;;;;;;;4.78;1.30;;;12.50;99.90;;;;;;5000500;28;20038;-62
2023/08/09 01:17:19;;;;;;;8.57;1.60;;;;;;;;;;4984080;28;20047;-63
2023/08/09 01:19:54;;;;;;;5.00;1.40;;;11.50;99.90;;;;;;4986676;28;20038;-62
2023/08/09 01:22:36;;;;;;;5.63;1.50;;;12.20;99.90;;;;;;4985834;28;20042;-65
2023/08/09 01:25:06;;;;;;;8.85;1.80;;;12.40;99.90;;;;;;4983933;28;20038;-64
2023/08/09 01:27:36;;;;;;;5.57;1.42;;;12.00;99.90;;;;;;4988953;28;20119;-62
2023/08/09 01:30:10;;;;;;;8.43;1.40;;;12.00;99.90;;;;;;4983944;28;20307;-63
2023/08/09 01:32:37;;;;;;;;;;;12.00;99.90;;;;;;4984083;28;20130;-64
2023/08/09 01:35:03;;;;;;;5.88;1.48;;;11.70;99.90;;;;;;4987751;28;19929;-63
2023/08/09 01:37:40;;;;;;;4.25;1.85;;;11.40;99.90;;;;;;4989521;28;20113;-62
2023/08/09 01:40:09;;;;;;;5.50;1.35;;;11.70;99.90;;;;;;4970700;28;20065;-62
2023/08/09 01:42:39;;;;;;;4.00;1.45;;;12.10;99.90;;;;;;5002548;28;20080;-63
2023/08/09 01:45:08;;;;;;;4.78;1.27;;;12.30;99.90;;;;;;4985117;28;20446;-63
2023/08/09 01:47:38;;;;;;;5.43;1.30;;;12.20;99.90;;;;;;5002059;28;20039;-64
2023/08/09 01:50:06;;;;;;;5.18;1.15;;;12.40;99.90;;;;;;4972566;28;20676;-62
2023/08/09 01:52:32;;;;;;;5.30;1.10;;;;;;;;;;4985219;28;20838;-62
2023/08/09 01:54:58;;;;;;;6.63;1.60;;;12.10;99.90;;;;;;4983939;28;20493;-62
2023/08/09 01:57:24;;;;;;;4.68;1.48;;;11.40;99.90;;;;;;4986054;28;20053;-61
2023/08/09 01:59:50;;;;;;;5.18;1.40;;;12.20;99.90;;;;;;4988704;28;20038;-62
2023/08/09 02:02:16;;;;;;;6.50;1.40;;;12.10;99.90;;;;;;4987935;28;20092;-63
2023/08/09 02:04:42;;;;;;;5.57;1.30;;;11.60;99.90;;;;;;4984948;28;20034;-63
2023/08/09 02:07:08;;;;;;;5.88;1.38;;;11.40;99.90;;;;;;4989027;28;20496;-62
2023/08/09 02:09:35;;;;;;;6.40;1.40;;;11.90;99.90;;;;;;4989054;28;20038;-65
2023/08/09 02:12:01;;;;;;;3.65;1.02;;;;;;;;;;5003779;28;20125;-63
2023/08/09 02:14:27;;;;;;;5.45;1.23;;;12.10;99.90;;;;;;4987062;28;20038;-62
2023/08/09 02:16:53;;;;;;;4.63;1.30;;;12.30;99.90;;;;;;4987554;28;20416;-62
2023/08/09 02:19:19;;;;;;;7.88;1.40;;;12.10;99.90;;;;;;4983736;28;20687;-61
2023/08/09 02:21:45;;;;;;;6.53;1.63;;;12.00;99.90;;;;;;4988423;28;20042;-62
2023/08/09 02:24:11;;;;;;;6.07;1.50;;;;;;;;;;4986198;28;20039;-64
2023/08/09 02:26:39;;;;;;;3.92;1.60;;;11.80;99.90;;;;;;4991895;28;20400;-63
2023/08/09 02:29:05;;;;;;;5.93;1.70;;;12.10;99.90;;;;;;4990957;28;20050;-62
2023/08/09 02:31:34;;;;;;;5.00;1.20;;;12.30;99.90;;;;;;4976810;28;20464;-63
2023/08/09 02:34:00;;;;;;;6.55;1.77;;;12.20;99.90;;;;;;4988377;28;20038;-63
2023/08/09 02:36:26;;;;;;;4.93;1.58;;;11.80;99.90;;;;;;4983909;28;20424;-63
2023/08/09 02:38:53;;;;;;;4.18;1.45;;;;;;;;;;4986050;28;20038;-63
2023/08/09 02:41:21;;;;;;;4.97;1.30;;;11.60;99.90;;;;;;4987391;28;20046;-62
2023/08/09 02:43:47;;;;;;;5.03;1.52;;;11.80;99.90;;;;;;4986169;28;20038;-63
2023/08/09 02:46:13;;;;;;;5.28;2.22;;;12.10;99.90;;;;;;4990997;28;20026;-62
2023/08/09 02:48:39;;;;;;;5.30;1.33;;;11.40;99.90;;;;;;4990187;28;20480;-63
2023/08/09 02:51:05;;;;;;;5.70;1.40;;;11.90;99.90;;;;;;4992069;28;20118;-63
2023/08/09 02:53:55;;;;;;;4.20;1.33;;;12.00;99.90;;;;;;4991874;28;20463;-63
2023/08/09 02:56:21;;;;;;;4.85;1.40;;;11.40;99.90;;;;;;4989363;28;20117;-63
2023/08/09 02:58:47;;;;;;;4.55;1.40;;;12.10;99.90;;;;;;4994371;28;20452;-62
2023/08/09 03:01:12;;;;;;;5.13;1.40;;;11.80;99.90;;;;;;4992037;28;20179;-62
2023/08/09 03:03:38;;;;;;;5.38;1.60;;;12.30;99.90;;;;;;4991529;28;20038;-63
2023/08/09 03:06:05;;;;;;;4.55;1.52;;;;;;;;;;4986136;28;20034;-62
2023/08/09 03:08:31;;;;;;;6.07;1.40;;;11.90;99.90;;;;;;4992151;28;20089;-62
2023/08/09 03:10:57;;;;;;;5.43;1.67;;;11.70;99.90;;;;;;4990546;28;20080;-62
2023/08/09 03:13:22;;;;;;;5.22;1.40;;;11.40;99.90;;;;;;4992236;28;20295;-62
2023/08/09 03:15:48;;;;;;;4.55;1.48;;;11.40;99.90;;;;;;4991673;28;20046;-62
2023/08/09 03:18:14;;;;;;;7.53;1.50;;;12.20;99.90;;;;;;4991250;28;20034;-62
2023/08/09 03:20:40;;;;;;;4.20;1.45;;;11.70;99.90;;;;;;4989606;28;20034;-63
2023/08/09 03:23:08;;;;;;;5.47;1.50;;;12.30;99.90;;;;;;4994727;23;20961;-62
2023/08/09 03:25:35;;;;;;;6.10;2.75;;;11.60;99.90;;;;;;4969305;28;20043;-62
2023/08/09 03:28:00;;;;;;;6.80;1.60;;;11.90;99.90;;;;;;4972264;28;20047;-62
2023/08/09 03:30:26;;;;;;;6.75;1.65;;;11.90;99.90;;;;;;4972230;28;20041;-61
2023/08/09 03:32:52;;;;;;;8.40;1.70;;;12.30;99.90;;;;;;4972171;28;20070;-61
2023/08/09 03:35:17;;;;;;;4.45;1.35;;;11.80;99.90;;;;;;4963719;28;20133;-61
2023/08/09 03:37:43;;;;;;;7.18;1.92;;;12.00;99.90;;;;;;4959503;28;20035;-61
2023/08/09 03:40:12;;;;;;;5.75;1.77;;;11.90;99.90;;;;;;4971621;28;20058;-61
2023/08/09 03:42:40;;;;;;;5.88;1.95;;;12.00;99.90;;;;;;4971962;28;20042;-61
2023/08/09 03:45:06;;;;;;;7.65;2.85;;;11.90;99.90;;;;;;4961718;28;20046;-61
2023/08/09 03:47:32;;;;;;;5.38;2.20;;;11.50;99.90;;;;;;4969048;28;20413;-61
2023/08/09 03:49:58;;;;;;;7.47;1.98;;;11.40;99.90;;;;;;4967531;28;20050;-61
2023/08/09 03:52:24;;;;;;;9.07;2.20;;;11.70;99.90;;;;;;4967022;28;20050;-61
2023/08/09 03:54:52;;;;;;;6.78;2.33;;;12.00;99.90;;;;;;4971177;28;20047;-61
2023/08/09 03:57:18;;;;;;;7.15;2.20;;;11.30;99.90;;;;;;4969428;28;20122;-61
2023/08/09 03:59:44;;;;;;;8.00;2.28;;;12.00;99.90;;;;;;4967665;28;20043;-61
2023/08/09 04:02:10;;;;;;;6.03;2.10;;;11.10;99.90;;;;;;4968501;28;20039;-61
2023/08/09 04:04:35;;;;;;;4.93;1.90;;;12.10;99.90;;;;;;4967770;28;20098;-62
2023/08/09 04:07:01;;;;;;;6.25;2.17;;;;;;;;;;4964312;28;20039;-62
2023/08/09 04:09:27;;;;;;;5.80;1.90;;;11.70;99.90;;;;;;4965278;28;20039;-62
2023/08/09 04:11:53;;;;;;;5.63;2.33;;;11.60;99.90;;;;;;4970283;28;20416;-62
2023/08/09 04:14:19;;;;;;;6.85;2.08;;;11.40;99.90;;;;;;4964817;28;20046;-62
2023/08/09 04:16:45;;;;;;;6.97;2.00;;;11.30;99.90;;;;;;4967036;28;20035;-61
2023/08/09 04:19:11;;;;;;;8.27;1.98;;;11.50;99.90;;;;;;4970544;28;20106;-62
2023/08/09 04:21:37;;;;;;;5.72;1.98;;;11.30;99.90;;;;;;4968516;28;20031;-62
2023/08/09 04:24:04;;;;;;;6.43;2.17;;;11.60;99.90;;;;;;4977031;28;20045;-62
2023/08/09 04:26:30;;;;;;;6.32;1.95;;;11.60;99.90;;;;;;4972005;28;20035;-62
2023/08/09 04:28:56;;;;;;;7.28;1.90;;;11.20;1.00;;;;;;4968951;28;20512;-62
2023/08/09 04:31:21;;;;;;;5.78;2.22;;;11.30;1.00;;;;;;4967362;28;20031;-61
2023/08/09 04:33:49;;;;;;;4.90;1.75;;;11.10;1.00;;;;;;4964274;28;20109;-61
2023/08/09 04:36:16;;;;;;;5.07;1.70;;;11.50;1.00;;;;;;4965942;28;20026;-62
2023/08/09 04:38:42;;;;;;;5.93;1.90;;;11.90;1.00;;;;;;4971323;28;20042;-61
2023/08/09 04:41:09;;;;;;;9.90;2.17;;;11.40;1.00;;;;;;4968613;28;20477;-62
2023/08/09 04:43:37;;;;;;;5.45;1.83;;;11.10;1.00;;;;;;4970740;28;20113;-61
2023/08/09 04:46:03;;;;;;;6.32;2.00;;;11.30;1.00;;;;;;4971178;28;20092;-64
2023/08/09 04:48:29;;;;;;;5.53;1.98;;;11.90;1.00;;;;;;4969968;28;20039;-61
2023/08/09 04:50:55;;;;;;;6.93;2.92;;;11.20;1.00;;;;;;4965055;28;20412;-61
2023/08/09 04:53:21;;;;;;;7.63;2.20;;;11.80;1.00;;;;;;4970296;28;20031;-62
2023/08/09 04:55:47;;;;;;;8.80;2.88;;;11.60;1.00;;;;;;4970411;28;20519;-62
2023/08/09 04:58:13;;;;;;;6.95;2.45;;;11.70;1.00;;;;;;4970034;28;20034;-61
2023/08/09 05:00:38;;;;;;;5.63;2.10;;;11.10;1.00;;;;;;4969495;28;20106;-62
2023/08/09 05:03:05;;;;;;;5.68;2.10;;;11.50;1.00;;;;;;4963158;28;20034;-62
2023/08/09 05:05:31;;;;;;;8.15;2.20;;;11.60;1.00;;;;;;4962858;28;20043;-62
2023/08/09 05:07:57;;;;;;;6.30;2.45;;;11.50;1.00;;;;;;4967361;28;20041;-62
2023/08/09 05:10:23;;;;;;;9.02;2.20;;;11.80;1.00;;;;;;4969117;28;20042;-62
2023/08/09 05:12:49;;;;;;;6.45;2.53;;;12.20;1.00;;;;;;4964151;28;20043;-61
2023/08/09 05:15:14;;;;;;;8.52;2.05;;;11.60;1.00;;;;;;4967156;28;20389;-62
2023/08/09 05:17:40;;;;;;;5.53;1.95;;;;;;;;;;4965221;28;20035;-62
2023/08/09 05:20:07;;;;;;;7.20;2.05;;;11.70;1.00;;;;;;4967419;28;20045;-62
2023/08/09 05:22:33;;;;;;;7.30;2.00;;;11.90;1.00;;;;;;4969108;28;20058;-61
2023/08/09 05:24:59;;;;;;;5.72;2.30;;;12.50;1.00;;;;;;4969797;28;20061;-62
2023/08/09 05:27:27;;;;;;;6.63;2.20;;;12.60;1.00;;;;;;4962645;28;20043;-62
2023/08/09 05:29:52;;;;;;;8.00;2.92;;;12.30;1.00;;;;;;4969259;28;20151;-61
2023/08/09 05:32:18;;;;;;;5.50;2.20;;;12.50;1.00;;;;;;4959834;28;20556;-61
2023/08/09 05:34:44;;;;;;;6.15;2.00;;;12.70;1.00;;;;;;4969580;28;20071;-62
2023/08/09 05:37:10;;;;;;;6.72;2.33;;;12.40;1.00;;;;;;4964163;28;20050;-61
2023/08/09 05:39:35;;;;;;;6.50;2.25;;;12.10;1.00;;;;;;4963263;28;20539;-62
2023/08/09 05:42:03;;;;;;;7.78;2.38;;;12.00;1.00;;;;;;4967431;28;20049;-62
2023/08/09 05:44:28;;;;;;;12.10;3.15;;;12.80;1.00;;;;;;4960581;28;20038;-61
2023/08/09 05:46:54;;;;;;;7.80;2.90;;;12.70;1.00;;;;;;4965907;28;20492;-61
2023/08/09 05:49:20;;;;;;;6.47;2.70;;;13.10;99.90;;;;;;4974712;28;20042;-62
2023/08/09 05:51:45;;;;;;;7.93;2.95;;;13.00;99.90;;;;;;4965593;28;20062;-61
2023/08/09 05:54:11;;;;;;;6.03;3.00;;;13.00;99.90;;;;;;4967367;28;20122;-62
2023/08/09 05:56:37;;;;;;;9.55;3.28;;;12.90;99.90;;;;;;4964981;28;20110;-61
2023/08/09 05:59:04;;;;;;;9.95;2.92;;;13.50;99.90;;;;;;4960030;28;20054;-62
2023/08/09 06:01:30;;;;;;;8.00;2.58;;;13.90;99.90;;;;;;4968464;28;20502;-62
2023/08/09 06:03:56;;;;;;;7.57;2.45;;;13.40;99.90;;;;;;4972800;28;20081;-61
2023/08/09 06:06:22;;;;;;;5.75;2.38;;;13.80;99.90;;;;;;4966850;28;20055;-61
2023/08/09 06:08:49;;;;;;;7.75;3.00;;;14.00;99.90;;;;;;4969870;28;20042;-62
2023/08/09 06:11:15;;;;;;;7.68;2.53;;;13.70;99.90;;;;;;4970287;28;20114;-61
2023/08/09 06:13:41;;;;;;;6.88;2.53;;;14.40;99.90;;;;;;4970523;28;20074;-62
2023/08/09 06:16:07;;;;;;;6.85;2.92;;;14.60;99.90;;;;;;4970377;28;20054;-62
2023/08/09 06:18:32;;;;;;;8.50;2.88;;;14.40;99.90;;;;;;4970307;28;20031;-62
2023/08/09 06:20:58;;;;;;;5.95;2.60;;;14.20;99.90;;;;;;4973306;28;20034;-62
2023/08/09 06:23:24;;;;;;;5.90;2.00;;;14.20;99.90;;;;;;4980928;28;20042;-61
2023/08/09 06:25:50;;;;;;;5.90;2.05;;;14.60;99.90;;;;;;4979269;28;20050;-61
2023/08/09 06:28:19;;;;;;;8.98;2.30;;;14.30;99.90;;;;;;4973814;28;20073;-62
2023/08/09 06:30:44;;;;;;;5.97;1.83;;;14.40;99.90;;;;;;4974450;28;20042;-62
2023/08/09 06:33:10;;;;;;;5.88;1.92;;;14.50;99.90;;;;;;4974255;28;20045;-62
2023/08/09 06:35:36;;;;;;;5.53;2.22;;;14.50;99.90;;;;;;4973413;28;20039;-62
2023/08/09 06:38:01;;;;;;;8.93;2.35;;;14.80;99.90;;;;;;4974197;28;20035;-62
2023/08/09 06:40:27;;;;;;;6.72;1.90;;;14.50;99.90;;;;;;4975402;28;20034;-62
2023/08/09 06:42:53;;;;;;;6.63;1.95;;;15.00;99.90;;;;;;4979471;28;20117;-62
2023/08/09 06:45:18;;;;;;;8.32;2.10;;;15.50;99.90;;;;;;4977498;28;20454;-62
2023/08/09 06:47:44;;;;;;;7.82;1.83;;;15.20;99.90;;;;;;4986270;28;20085;-62
2023/08/09 06:50:10;;;;;;;4.80;1.70;;;15.20;99.90;;;;;;4972062;28;20043;-62
2023/08/09 06:52:37;;;;;;;6.75;2.17;;;14.90;99.90;;;;;;4973893;28;20089;-62
2023/08/09 06:55:07;;;;;;;7.15;2.00;;;14.90;99.90;;;;;;4975968;28;20126;-62
2023/08/09 06:57:36;;;;;;;8.65;2.17;;;15.40;99.90;;;;;;4960942;28;20122;-62
2023/08/09 07:00:04;;;;;;;5.68;1.77;;;15.80;99.90;;;;;;4973540;28;20039;-61
2023/08/09 07:02:30;;;;;;;4.18;1.42;;;15.00;99.90;;;;;;4972377;28;20060;-62
2023/08/09 07:05:01;;;;;;;6.30;1.95;;;15.00;99.90;;;;;;4973877;28;20113;-62
2023/08/09 07:07:26;;;;;;;7.90;2.00;;;15.20;99.90;;;;;;4973489;28;20038;-63
2023/08/09 07:09:52;;;;;;;8.88;2.03;;;16.30;99.90;;;;;;4973416;28;20039;-62
2023/08/09 07:12:20;;;;;;;4.50;1.58;;;15.90;99.90;;;;;;4970595;28;20133;-62
2023/08/09 07:14:46;;;;;;;4.55;1.60;;;16.00;99.90;;;;;;4972635;28;20497;-62
2023/08/09 07:17:12;;;;;;;6.07;1.40;;;15.70;99.90;;;;;;4973464;28;20078;-62
2023/08/09 07:19:37;;;;;;;6.20;1.70;;;16.70;73.30;;;;;;4973640;28;20062;-62
2023/08/09 07:22:03;;;;;;;6.18;1.42;;;16.50;69.10;;;;;;4973161;28;20119;-61
2023/08/09 07:24:29;;;;;;;5.10;1.20;;;16.40;1.00;;;;;;4980922;28;20038;-62
2023/08/09 07:26:55;;;;;;;4.55;1.40;;;16.70;1.00;;;;;;4973448;28;20507;-62
2023/08/09 07:29:21;;;;;;;5.05;1.33;;;16.70;1.00;;;;;;4973025;28;20042;-62
2023/08/09 07:31:46;;;;;;;7.57;1.45;;;16.10;1.00;;;;;;4972971;28;20193;-62
2023/08/09 07:34:12;;;;;;;4.72;1.30;;;16.40;1.00;;;;;;4973147;28;20097;-62
2023/08/09 07:36:37;;;;;;;5.65;1.40;;;16.60;1.00;;;;;;4973393;28;20039;-62
2023/08/09 07:39:03;;;;;;;5.75;1.50;;;16.70;1.00;;;;;;4972892;28;20073;-62
2023/08/09 07:41:29;;;;;;;3.38;1.35;;;16.10;1.00;;;;;;4965731;28;20037;-62
2023/08/09 07:43:55;;;;;;;4.68;1.42;;;16.40;99.90;;;;;;4973878;28;20511;-62
2023/08/09 07:46:20;;;;;;;5.20;1.70;;;17.40;99.90;;;;;;4979818;28;20404;-62
2023/08/09 07:48:46;;;;;;;5.03;1.40;;;17.00;99.90;;;;;;4971621;28;20072;-62
2023/08/09 07:51:12;;;;;;;5.05;2.15;;;17.10;99.90;;;;;;4972922;28;20101;-62
2023/08/09 07:53:41;;;;;;;5.15;1.40;;;17.20;99.90;;;;;;4972824;28;20386;-62
2023/08/09 07:56:06;;;;;;;6.63;1.52;;;16.90;99.90;;;;;;4972530;28;20564;-62
2023/08/09 07:58:32;;;;;;;8.18;1.42;;;17.30;99.90;;;;;;4974206;28;20042;-61
2023/08/09 08:00:58;;;;;;;5.63;1.30;;;16.90;99.90;;;;;;4974664;28;20057;-62
2023/08/09 08:03:24;;;;;;;6.25;1.40;;;16.80;99.90;;;;;;4973321;28;20034;-62
2023/08/09 08:05:49;;;;;;;3.55;1.20;;;17.50;74.50;;;;;;4967812;28;20485;-62
2023/08/09 08:08:17;;;;;;;5.30;1.27;;;17.10;13.80;;;;;;4978162;28;20471;-62
2023/08/09 08:10:43;;;;;;;6.78;1.80;;;17.40;13.00;;;;;;4972916;28;20050;-62
2023/08/09 08:13:09;;;;;;;4.55;1.40;;;17.10;1.00;;;;;;4972794;28;20049;-62
2023/08/09 08:15:36;;;;;;;4.60;1.30;;;17.60;1.00;;;;;;4972957;28;20043;-62
2023/08/09 08:18:03;;;;;;;3.55;1.10;;;17.30;1.00;;;;;;4971445;28;20133;-61
2023/08/09 08:20:29;;;;;;;6.45;2.17;;;17.60;1.00;;;;;;4972704;28;20043;-62
2023/08/09 08:22:54;;;;;;;4.57;1.20;;;17.60;1.00;;;;;;4972535;28;20512;-61
2023/08/09 08:25:20;;;;;;;3.60;1.15;;;17.40;99.90;;;;;;4972261;28;20035;-62
2023/08/09 08:27:47;;;;;;;5.28;1.52;;;17.20;99.90;;;;;;4971300;28;20048;-62
2023/08/09 08:30:14;;;;;;;4.00;1.63;;;17.80;1.00;;;;;;4954660;28;20150;-61
2023/08/09 08:32:40;;;;;;;2.95;1.15;;;17.30;1.00;;;;;;4975423;28;20042;-63
2023/08/09 08:35:11;;;;;;;3.95;1.50;;;17.30;1.00;;;;;;4972287;28;20042;-62
2023/08/09 08:37:38;;;;;;;7.95;1.80;;;18.10;1.00;;;;;;4972594;28;20042;-62
2023/08/09 08:40:17;;;;;;;5.10;1.40;;;17.10;13.80;;;;;;4972232;28;20046;-62
2023/08/09 08:42:44;;;;;;;3.85;1.30;;;17.80;1.00;;;;;;4964610;28;20046;-62
2023/08/09 08:45:12;;;;;;;4.53;1.30;;;18.00;13.20;;;;;;4972255;28;20051;-63
2023/08/09 08:47:42;;;;;;;4.80;2.10;;;17.50;26.20;;;;;;4971804;28;20039;-62
2023/08/09 08:50:09;;;;;;;5.50;1.40;;;17.50;1.00;;;;;;4971847;28;20492;-62
2023/08/09 08:52:37;;;;;;;3.95;1.30;;;17.70;30.50;;;;;;4971178;28;20042;-62
2023/08/09 08:55:06;;;;;;;6.15;1.70;;;17.90;1.00;;;;;;4971024;28;20073;-62
2023/08/09 08:57:32;;;;;;;3.60;1.10;;;18.30;1.00;;;;;;4971232;28;20039;-62
2023/08/09 09:00:00;;;;;;;4.25;1.20;;;18.60;99.90;;;;;;4971633;28;20050;-62
2023/08/09 09:02:25;;;;;;;4.40;1.00;;;18.20;99.90;;;;;;4970823;28;20517;-62
2023/08/09 09:04:52;;;;;;;4.45;1.45;;;18.00;59.80;;;;;;4972077;28;20050;-62
2023/08/09 09:07:18;;;;;;;4.97;1.30;;;18.10;29.40;;;;;;4971936;28;20035;-62
2023/08/09 09:10:05;;;;;;;4.47;1.20;;;18.70;26.00;;;;;;4973389;28;20035;-62
2023/08/09 09:12:34;;;;;;;5.07;1.35;;;18.90;1.00;;;;;;4972258;28;20043;-61
2023/08/09 09:15:03;;;;;;;4.53;1.13;;;;;;;;;;4974347;28;20122;-61
2023/08/09 09:17:29;;;;;;;4.07;1.30;;;19.00;90.40;;;;;;4972472;28;20049;-62
2023/08/09 09:19:54;;;;;;;2.88;1.10;;;18.20;61.10;;;;;;4971159;28;20412;-62
2023/08/09 09:22:28;;;;;;;4.78;1.17;;;18.40;1.00;;;;;;4971173;28;20038;-62
2023/08/09 09:24:59;;;;;;;4.82;1.35;;;19.10;1.00;;;;;;4970980;28;20050;-61
2023/08/09 09:27:30;;;;;;;5.30;1.20;;;19.30;1.00;;;;;;4968554;28;20049;-61
2023/08/09 09:30:04;;;;;;;6.97;1.80;;;19.30;1.00;;;;;;4971381;28;20054;-63
2023/08/09 09:32:32;;;;;;;;;;;19.20;1.00;;;;;;4973818;28;20041;-63
2023/08/09 09:34:57;;;;;;;5.88;1.60;;;18.70;1.00;;;;;;4971323;28;19926;-62
2023/08/09 09:37:28;;;;;;;5.03;1.33;;;19.30;1.00;;;;;;4970615;28;20027;-62
2023/08/09 09:39:54;;;;;;;4.28;1.30;;;19.50;1.00;;;;;;4953646;28;20046;-62
2023/08/09 09:42:31;;;;;;;5.30;2.25;;;19.00;1.00;;;;;;4971531;28;20497;-62
2023/08/09 09:45:04;;;;;;;6.72;1.90;;;19.30;1.00;;;;;;4970239;28;20050;-61
2023/08/09 09:47:32;;;;;;;3.40;1.15;;;19.60;1.00;;;;;;4968134;28;20050;-62
2023/08/09 09:49:58;;;;;;;4.55;1.40;;;19.40;1.00;;;;;;4970957;28;20045;-62
2023/08/09 09:52:27;;;;;;;5.55;1.30;;;19.60;1.00;;;;;;4968295;28;20027;-62
2023/08/09 09:54:55;;;;;;;6.22;1.60;;;19.60;99.90;;;;;;4971167;28;20081;-62
2023/08/09 09:57:21;;;;;;;2.83;1.20;;;19.90;99.90;;;;;;4970767;28;20042;-61
2023/08/09 09:59:46;;;;;;;4.50;1.55;;;19.70;99.90;;;;;;4970874;28;20039;-61
2023/08/09 10:02:13;;;;;;;4.40;1.42;;;19.50;1.00;;;;;;4971314;28;20046;-61
2023/08/09 10:04:40;;;;;;;5.05;1.98;;;19.90;1.00;;;;;;4970416;28;20113;-62
2023/08/09 10:07:07;;;;;;;5.20;1.50;;;19.20;1.00;;;;;;4970872;28;20515;-62
2023/08/09 10:09:34;;;;;;;3.85;1.30;;;20.00;99.90;;;;;;4970256;28;20523;-62
2023/08/09 10:12:03;;;;;;;4.20;1.27;;;19.90;1.00;;;;;;4971037;28;20116;-62
2023/08/09 10:14:31;;;;;;;4.35;1.40;;;20.20;1.00;;;;;;4970251;28;20500;-61
2023/08/09 10:16:59;;;;;;;3.95;1.30;;;19.90;1.00;;;;;;4975602;28;20030;-61
2023/08/09 10:19:26;;;;;;;5.47;1.50;;;19.70;1.00;;;;;;4971549;28;20046;-61
2023/08/09 10:21:54;;;;;;;5.95;1.48;;;20.00;1.00;;;;;;4970726;28;20097;-61
2023/08/09 10:24:20;;;;;;;4.55;1.38;;;20.20;1.00;;;;;;4970665;28;20035;-61
2023/08/09 10:26:49;;;;;;;6.35;1.65;;;19.90;1.00;;;;;;4970518;28;20039;-61
2023/08/09 10:29:23;;;;;;;4.60;1.40;;;20.10;1.00;;;;;;4970566;28;20050;-62
2023/08/09 10:31:50;;;;;;;;;;;20.30;1.00;;;;;;4966609;28;20100;-61
2023/08/09 10:34:17;;;;;;;4.43;1.50;;;19.70;1.00;;;;;;4954606;28;19933;-62
2023/08/09 10:36:53;;;;;;;5.00;1.40;;;19.80;1.00;;;;;;4969777;28;20409;-61
2023/08/09 10:39:19;;;;;;;5.00;1.58;;;19.80;1.00;;;;;;4965352;28;20532;-62
2023/08/09 10:42:08;;;;;;;4.68;1.30;;;20.00;1.00;;;;;;4972427;28;20457;-61
2023/08/09 10:44:49;;;;;;;5.07;1.60;;;20.00;16.70;;;;;;4968350;28;20631;-61
2023/08/09 10:47:25;;;;;;;4.10;1.50;;;19.90;3.00;;;;;;4970646;28;20027;-61
2023/08/09 10:49:53;;;;;;;4.20;1.45;;;20.10;1.00;;;;;;4962808;28;20380;-61
2023/08/09 10:52:46;;;;;;;5.55;1.80;;;20.50;1.00;;;;;;4970676;28;20550;-62
2023/08/09 10:55:18;;;;;;;6.05;1.60;;;20.50;1.00;;;;;;4966056;28;20043;-61
2023/08/09 10:57:45;;;;;;;4.63;1.45;;;20.00;99.90;;;;;;4970012;28;20047;-61
2023/08/09 11:00:14;;;;;;;4.03;1.35;;;20.60;80.20;;;;;;4970314;28;20046;-61
2023/08/09 11:02:56;;;;;;;5.03;1.65;;;20.10;23.50;;;;;;4969907;28;20070;-61
2023/08/09 11:05:23;;;;;;;7.53;2.00;;;20.00;1.00;;;;;;4966759;28;20493;-61
2023/08/09 11:07:51;;;;;;;5.60;1.50;;;20.50;16.90;;;;;;4974103;28;20039;-61
2023/08/09 11:10:43;;;;;;;5.30;1.30;;;19.70;53.60;;;;;;4975480;28;20116;-61
2023/08/09 11:13:12;;;;;;;4.18;1.48;;;20.20;1.00;;;;;;4947132;28;20061;-61
2023/08/09 11:15:41;;;;;;;4.20;1.30;;;20.10;1.00;;;;;;4971683;28;20043;-61
2023/08/09 11:18:07;;;;;;;4.25;1.65;;;19.90;1.00;;;;;;4973818;28;20047;-61
2023/08/09 11:20:32;;;;;;;5.60;1.58;;;20.20;1.00;;;;;;4977899;28;20038;-61
2023/08/09 11:22:59;;;;;;;5.28;1.40;;;20.00;1.00;;;;;;4974677;28;20497;-61
2023/08/09 11:25:27;;;;;;;3.78;1.30;;;19.90;1.00;;;;;;4971339;28;20054;-61
2023/08/09 11:27:54;;;;;;;4.95;1.70;;;20.20;1.00;;;;;;4973640;28;20035;-61
2023/08/09 11:30:21;;;;;;;6.65;1.70;;;20.20;46.30;;;;;;4968216;28;20438;-61
2023/08/09 11:33:01;;;;;;;4.50;1.50;;;20.20;99.90;;;;;;4972667;28;20035;-61
2023/08/09 11:35:47;;;;;;;6.20;1.77;;;20.30;99.90;;;;;;4971770;28;20108;-61
2023/08/09 11:38:15;;;;;;;4.18;1.60;;;20.10;5.10;;;;;;4973332;28;20062;-61
2023/08/09 11:40:46;;;;;;;6.95;2.13;;;20.30;1.00;;;;;;4972482;28;20042;-61
2023/08/09 11:43:14;;;;;;;5.63;1.40;;;20.20;1.00;;;;;;4973632;28;20038;-61
2023/08/09 11:45:54;;;;;;;9.25;1.92;;;20.30;1.00;;;;;;4972706;28;20494;-61
2023/08/09 11:48:34;;;;;;;4.32;1.30;;;20.30;99.90;;;;;;4973401;28;20070;-61
2023/08/09 11:51:14;;;;;;;5.32;1.27;;;20.20;99.90;;;;;;4972480;28;20114;-61
2023/08/09 11:53:42;;;;;;;4.60;1.70;;;20.20;99.90;;;;;;4972774;28;20043;-62
2023/08/09 11:56:16;;;;;;;5.72;1.52;;;20.50;99.90;;;;;;4973598;28;20070;-62
2023/08/09 11:58:46;;;;;;;5.65;1.52;;;21.00;99.90;;;;;;4972653;28;20039;-61
2023/08/09 12:01:20;;;;;;;4.53;1.17;;;20.40;99.90;;;;;;4971954;28;20082;-61
2023/08/09 12:03:49;;;;;;;5.72;1.77;;;21.20;99.90;;;;;;4972420;28;20500;-62
2023/08/09 12:06:16;;;;;;;6.05;1.63;;;21.20;99.90;;;;;;4963576;28;20074;-61
2023/08/09 12:08:42;;;;;;;5.35;1.70;;;21.00;99.90;;;;;;4960264;28;20400;-61
2023/08/09 12:11:08;;;;;;;9.68;2.08;;;20.80;99.90;;;;;;4972927;28;20043;-61
2023/08/09 12:13:33;;;;;;;6.47;1.67;;;20.60;1.00;;;;;;4972250;28;20073;-61
2023/08/09 12:16:06;;;;;;;6.70;1.92;;;21.00;99.90;;;;;;4972768;28;20181;-62
2023/08/09 12:18:39;;;;;;;5.90;1.67;;;21.20;1.00;;;;;;4968812;28;20405;-61
2023/08/09 12:21:07;;;;;;;8.77;1.83;;;21.70;1.00;;;;;;4971646;28;20039;-61
2023/08/09 12:23:35;;;;;;;8.32;2.08;;;21.70;99.90;;;;;;4963706;28;20043;-63
2023/08/09 12:26:01;;;;;;;5.60;1.77;;;21.50;1.00;;;;;;4968993;28;20408;-62
2023/08/09 12:28:27;;;;;;;6.43;1.92;;;21.40;99.90;;;;;;4965628;28;20112;-62
2023/08/09 12:30:52;;;;;;;6.28;1.75;;;21.20;99.90;;;;;;4971421;28;20042;-62
2023/08/09 12:33:18;;;;;;;5.40;1.70;;;21.70;99.90;;;;;;4966025;28;20031;-62
2023/08/09 12:35:44;;;;;;;5.95;1.45;;;21.90;99.90;;;;;;4967277;28;20054;-62
2023/08/09 12:38:09;;;;;;;6.80;2.08;;;21.00;99.90;;;;;;4971694;28;20500;-62
2023/08/09 12:40:35;;;;;;;7.65;2.08;;;22.80;99.90;;;;;;4969964;28;20035;-62
2023/08/09 12:43:00;;;;;;;5.72;1.83;;;23.10;99.90;;;;;;4971550;28;20039;-62
2023/08/09 12:45:26;;;;;;;6.78;1.88;;;23.70;99.90;;;;;;4971586;28;20129;-62
2023/08/09 12:47:52;;;;;;;6.22;1.88;;;24.00;99.90;;;;;;4964623;28;20041;-62
2023/08/09 12:50:20;;;;;;;4.50;1.50;;;24.20;99.90;;;;;;4959916;28;20475;-62
2023/08/09 12:52:46;;;;;;;5.20;1.40;;;25.00;99.90;;;;;;4967403;28;20039;-62
2023/08/09 12:55:12;;;;;;;7.43;2.08;;;24.00;99.90;;;;;;4977382;28;20050;-63
2023/08/09 12:57:38;;;;;;;5.93;1.58;;;24.90;99.90;;;;;;4962233;28;20118;-64